Youngwood, PA

2:13 PM EDT on July 29, 2016 (GMT -0400)
Midway St. Clair | | Change Station

Elev 1135 ft 40.27 °N, 79.56 °W | Updated 19 seconds ago

Mostly Cloudy
Mostly Cloudy
82.2 °F
Feels Like 86 °F
N
1.0
Wind Variable Wind from WNW
Gusts 3.0 mph

Today
High -- | Low -- °F
--% Chance of Precip.
Yesterday
High -- | Low -- °F
Precip. -- in
Pressure 29.98 in
Visibility 10.0 miles
Clouds Mostly Cloudy 3000 ft
Heat Index 86 °F
Dew Point 70 °F
Humidity 67%
Rainfall 0.10 in
Snow Depth Not available.
6:13 AM 8:35 PM
Waning Crescent, 20% visible
METAR KLBE 291745Z VRB05KT 10SM BKN030 25/20 A2998
Pressure 29.98 in
Visibility 10.0 miles
Clouds Mostly Cloudy 3000 ft
Heat Index 86 °F
Dew Point 70 °F
Humidity 67%
Rainfall 0.10 in
Snow Depth Not available.
6:13 AM 8:35 PM
Waning Crescent, 20% visible
METAR KLBE 291745Z VRB05KT 10SM BKN030 25/20 A2998

10-Day Weather Forecast

Almanac

Astronomy

Jul. 29, 2016 Rise Set
Actual Time
Civil Twilight
Nautical Twilight
Astronomical Twilight
Moon
Length of Visible Light
Length of Day
Tomorrow will be .
, % of the Moon is Illuminated

Today's Extremes

State Highs State Lows

Community

WunderPhotos

Upload Photos

1,928,391 photos uploaded!

WunderBlog® & News

Nearby

Air Quality

  Air Quality AQ Index Pollutant
Not available.

Snow Depth

Station Depth Elevation

Earthquake Activity

City Distance Mag. Time & Date
Minimum magnitude displayed is 2.5.

Coastal Water Temperatures

Place Temperature

Stations

Nearby Weather Stations

Station Location Temp. Windchill Dew Point Humidity Wind Precip. Elev Updated Type
                   

Watches & Warnings

There are currently no watches in effect.